Time;durP1;ratioP1;P1;durP2;ratioP2;P2;SDS_P1;SDS_P2;PMS_P1;PMS_P2;Temp;Humidity;BMP_temperature;BMP_pressure;BME280_temperature;BME280_humidity;BME280_pressure;Samples;Min_cycle;Max_cycle;Signal;HPM_P1;HPM_P2
2022/03/14 00:00:18;;;;;;;20.13;12.23;;;7.60;59.50;;;;;;5050141;28;20033;-66
2022/03/14 00:02:45;;;;;;;18.13;10.70;;;7.60;60.00;;;;;;5057107;28;20036;-66
2022/03/14 00:05:13;;;;;;;18.63;11.73;;;7.60;60.50;;;;;;5063745;28;20497;-65
2022/03/14 00:07:42;;;;;;;20.17;11.77;;;7.50;60.80;;;;;;5044877;28;20040;-65
2022/03/14 00:10:09;;;;;;;18.40;11.00;;;7.50;61.20;;;;;;5033865;28;20036;-67
2022/03/14 00:12:34;;;;;;;19.33;11.65;;;7.50;61.60;;;;;;5047362;28;20644;-65
2022/03/14 00:15:03;;;;;;;18.73;11.38;;;7.50;61.80;;;;;;5049597;28;20029;-66
2022/03/14 00:17:29;;;;;;;20.20;11.50;;;7.50;62.30;;;;;;5060095;28;20064;-67
2022/03/14 00:19:57;;;;;;;20.58;11.63;;;7.50;62.50;;;;;;5060522;28;20080;-66
2022/03/14 00:22:24;;;;;;;20.25;11.35;;;7.50;63.80;;;;;;5049728;28;20136;-67
2022/03/14 00:24:49;;;;;;;18.30;10.35;;;7.60;64.00;;;;;;5051965;28;20036;-66
2022/03/14 00:27:15;;;;;;;17.70;10.45;;;7.70;66.70;;;;;;5065658;28;20377;-65
2022/03/14 00:29:41;;;;;;;19.77;10.25;;;8.10;67.20;;;;;;5038527;28;20036;-66
2022/03/14 00:32:07;;;;;;;18.98;10.48;;;8.40;67.10;;;;;;5051426;28;20124;-65
2022/03/14 00:34:32;;;;;;;18.75;9.10;;;8.70;67.10;;;;;;5061822;28;20037;-65
2022/03/14 00:36:58;;;;;;;16.58;9.43;;;8.80;65.50;;;;;;5054061;28;20083;-65
2022/03/14 00:39:24;;;;;;;15.93;9.27;;;8.80;66.00;;;;;;5060994;28;20037;-66
2022/03/14 00:41:50;;;;;;;15.80;9.57;;;8.90;67.60;;;;;;5057342;28;20449;-66
2022/03/14 00:44:16;;;;;;;16.00;9.02;;;8.90;66.70;;;;;;5036788;28;20521;-66
2022/03/14 00:46:43;;;;;;;16.52;9.73;;;8.80;66.40;;;;;;5050823;28;20068;-66
2022/03/14 00:49:08;;;;;;;14.57;8.95;;;8.80;67.60;;;;;;5058177;28;20334;-66
2022/03/14 00:51:35;;;;;;;13.65;8.20;;;8.80;68.60;;;;;;5053553;28;20141;-66
2022/03/14 00:54:05;;;;;;;14.57;7.82;;;8.90;69.60;;;;;;5045901;28;20082;-66
2022/03/14 00:56:31;;;;;;;12.70;8.10;;;8.90;70.70;;;;;;5052495;28;20037;-63
2022/03/14 00:58:59;;;;;;;14.77;7.55;;;9.10;70.50;;;;;;5056375;28;20040;-65
2022/03/14 01:01:26;;;;;;;11.02;6.82;;;9.30;71.20;;;;;;5049682;28;20049;-65
2022/03/14 01:03:52;;;;;;;11.02;6.72;;;9.30;72.40;;;;;;5046014;28;20064;-65
2022/03/14 01:06:17;;;;;;;11.35;6.93;;;9.40;72.30;;;;;;5039254;28;20052;-65
2022/03/14 01:08:43;;;;;;;11.57;6.63;;;9.40;72.40;;;;;;5054743;28;20044;-66
2022/03/14 01:11:08;;;;;;;8.40;5.57;;;9.50;71.40;;;;;;5057701;28;20056;-66
2022/03/14 01:13:34;;;;;;;9.38;6.10;;;9.50;71.70;;;;;;5067389;28;20040;-66
2022/03/14 01:15:59;;;;;;;10.65;6.00;;;9.50;72.00;;;;;;5034636;28;20082;-66
2022/03/14 01:18:25;;;;;;;9.68;6.07;;;9.50;72.00;;;;;;5046201;28;20060;-66
2022/03/14 01:20:51;;;;;;;9.77;6.32;;;9.50;72.10;;;;;;5059780;28;20047;-66
2022/03/14 01:23:17;;;;;;;10.23;5.93;;;9.40;72.50;;;;;;5058068;28;20138;-65
2022/03/14 01:25:43;;;;;;;10.13;6.68;;;9.30;73.80;;;;;;5057165;28;20039;-65
2022/03/14 01:28:08;;;;;;;9.80;6.07;;;9.30;74.40;;;;;;5050794;28;20333;-66
2022/03/14 01:30:35;;;;;;;11.40;6.53;;;9.20;74.20;;;;;;5052292;28;20044;-66
2022/03/14 01:33:01;;;;;;;10.18;6.45;;;9.10;73.40;;;;;;5031268;28;20474;-65
2022/03/14 01:35:27;;;;;;;9.52;5.95;;;9.00;75.10;;;;;;5051838;28;20039;-66
2022/03/14 01:37:54;;;;;;;9.95;5.70;;;9.00;75.40;;;;;;5044531;28;20402;-67
2022/03/14 01:40:20;;;;;;;9.27;5.97;;;9.00;76.30;;;;;;5060020;28;20047;-66
2022/03/14 01:42:46;;;;;;;10.18;5.97;;;9.00;77.00;;;;;;5047919;28;20585;-66
2022/03/14 01:45:13;;;;;;;10.85;6.50;;;9.00;75.70;;;;;;5048087;28;20043;-65
2022/03/14 01:47:41;;;;;;;9.07;5.38;;;9.00;75.80;;;;;;5052860;28;20045;-66
2022/03/14 01:50:08;;;;;;;10.77;6.30;;;9.00;75.60;;;;;;5047844;28;20047;-66
2022/03/14 01:52:34;;;;;;;9.15;5.63;;;9.00;75.80;;;;;;5043652;28;20503;-66
2022/03/14 01:55:00;;;;;;;9.70;5.20;;;9.10;76.40;;;;;;5065102;28;20215;-66
2022/03/14 01:57:27;;;;;;;8.77;5.57;;;9.10;76.80;;;;;;5048417;28;20588;-66
2022/03/14 01:59:54;;;;;;;8.40;5.40;;;9.20;76.90;;;;;;5047166;28;20052;-66
2022/03/14 02:02:19;;;;;;;8.75;4.85;;;9.20;77.50;;;;;;5029039;28;20369;-66
2022/03/14 02:04:45;;;;;;;7.22;4.82;;;9.30;77.50;;;;;;5047076;28;20039;-66
2022/03/14 02:07:11;;;;;;;7.28;5.22;;;9.30;78.00;;;;;;5052191;28;20044;-65
2022/03/14 02:09:36;;;;;;;7.78;5.30;;;9.30;77.60;;;;;;5059593;28;20120;-67
2022/03/14 02:12:02;;;;;;;8.75;4.97;;;9.20;77.00;;;;;;5034722;28;20040;-66
2022/03/14 02:14:28;;;;;;;8.23;5.10;;;9.30;77.50;;;;;;5048817;28;20052;-66
2022/03/14 02:16:54;;;;;;;7.00;4.55;;;9.20;77.70;;;;;;5049121;28;20055;-66
2022/03/14 02:19:20;;;;;;;7.53;4.88;;;9.20;77.90;;;;;;5057323;28;20057;-66
2022/03/14 02:21:46;;;;;;;6.88;4.47;;;9.20;78.10;;;;;;5043858;28;20430;-66
2022/03/14 02:24:12;;;;;;;7.40;4.55;;;9.20;78.00;;;;;;5052656;28;20032;-66
2022/03/14 02:26:39;;;;;;;7.68;4.95;;;9.20;78.30;;;;;;5054807;28;20161;-65
2022/03/14 02:29:10;;;;;;;6.78;4.60;;;9.10;78.40;;;;;;5052467;28;20045;-67
2022/03/14 02:31:39;;;;;;;6.03;4.63;;;9.10;78.60;;;;;;5051491;28;20043;-66
2022/03/14 02:34:05;;;;;;;6.97;4.22;;;9.10;79.90;;;;;;5032377;28;20056;-66
2022/03/14 02:36:31;;;;;;;7.28;3.95;;;9.10;79.10;;;;;;5061111;28;20069;-66
2022/03/14 02:38:57;;;;;;;5.82;4.20;;;9.10;79.30;;;;;;5048026;28;20120;-66
2022/03/14 02:41:23;;;;;;;6.72;4.95;;;9.10;79.70;;;;;;5052261;28;20033;-66
2022/03/14 02:43:49;;;;;;;6.53;5.18;;;9.10;79.90;;;;;;5054999;28;20442;-65
2022/03/14 02:46:15;;;;;;;6.43;4.35;;;9.10;79.90;;;;;;5063336;28;20036;-66
2022/03/14 02:48:41;;;;;;;6.97;4.80;;;9.10;79.80;;;;;;5041226;28;20528;-66
2022/03/14 02:51:07;;;;;;;6.78;4.20;;;9.10;80.30;;;;;;5053302;28;20068;-66
2022/03/14 02:53:32;;;;;;;6.43;4.30;;;9.10;80.40;;;;;;5060991;28;20044;-66
2022/03/14 02:55:58;;;;;;;6.22;4.97;;;9.10;80.60;;;;;;5049283;28;20152;-66
2022/03/14 02:58:28;;;;;;;6.53;4.07;;;9.10;80.60;;;;;;5052852;28;20098;-65
2022/03/14 03:00:54;;;;;;;5.95;4.45;;;9.00;80.60;;;;;;5046457;28;20048;-66
2022/03/14 03:03:19;;;;;;;8.20;4.80;;;9.00;80.70;;;;;;5045731;28;20028;-65
2022/03/14 03:05:45;;;;;;;7.15;4.60;;;9.00;80.90;;;;;;5058495;28;20706;-66
2022/03/14 03:08:11;;;;;;;6.35;4.75;;;8.90;81.10;;;;;;5070303;28;20037;-66
2022/03/14 03:10:37;;;;;;;7.97;4.97;;;8.90;81.30;;;;;;5066175;28;20036;-66
2022/03/14 03:13:03;;;;;;;7.88;4.72;;;8.80;81.30;;;;;;5033959;28;20049;-66
2022/03/14 03:15:29;;;;;;;8.10;5.18;;;8.80;81.60;;;;;;5048586;28;20055;-65
2022/03/14 03:17:54;;;;;;;8.43;5.38;;;8.80;82.00;;;;;;5043965;28;20036;-65
2022/03/14 03:20:20;;;;;;;8.32;5.25;;;8.70;82.30;;;;;;5061266;28;20053;-66
2022/03/14 03:22:46;;;;;;;8.65;5.43;;;8.70;82.80;;;;;;5057733;28;20052;-66
2022/03/14 03:25:11;;;;;;;12.25;6.47;;;8.70;82.80;;;;;;5056546;28;20044;-66
2022/03/14 03:27:37;;;;;;;14.60;7.05;;;8.60;83.10;;;;;;5065875;28;20037;-66
2022/03/14 03:30:03;;;;;;;12.10;6.82;;;8.60;83.30;;;;;;5052524;28;20122;-66
2022/03/14 03:32:29;;;;;;;12.15;6.53;;;8.60;83.80;;;;;;5050517;28;20247;-65
2022/03/14 03:34:55;;;;;;;10.45;6.38;;;8.50;84.10;;;;;;5049774;28;20621;-66
2022/03/14 03:37:20;;;;;;;9.32;5.40;;;8.50;84.30;;;;;;5053541;28;20057;-66
2022/03/14 03:39:46;;;;;;;8.45;5.15;;;8.50;84.60;;;;;;5058583;28;20089;-65
2022/03/14 03:42:11;;;;;;;10.50;6.05;;;8.50;84.70;;;;;;5049158;28;20067;-66
2022/03/14 03:44:37;;;;;;;11.88;6.40;;;8.50;85.00;;;;;;5052748;28;20037;-66
2022/03/14 03:47:04;;;;;;;9.63;5.93;;;8.50;85.30;;;;;;5065042;28;20113;-66
2022/03/14 03:49:30;;;;;;;9.02;5.15;;;8.50;85.40;;;;;;5031173;28;20033;-66
2022/03/14 03:51:55;;;;;;;7.20;4.78;;;8.50;85.50;;;;;;5046973;28;20064;-65
2022/03/14 03:54:21;;;;;;;9.70;5.00;;;8.50;85.90;;;;;;5038526;28;20048;-66
2022/03/14 03:56:47;;;;;;;6.72;4.40;;;8.60;86.10;;;;;;5055364;28;20037;-65
2022/03/14 03:59:13;;;;;;;7.43;4.85;;;8.60;86.00;;;;;;5049031;28;20071;-65
2022/03/14 04:01:39;;;;;;;7.72;4.25;;;8.60;86.00;;;;;;5051571;28;20052;-66
2022/03/14 04:04:05;;;;;;;7.72;4.45;;;8.60;86.30;;;;;;5048062;28;20044;-65
2022/03/14 04:06:30;;;;;;;6.88;4.40;;;8.60;86.20;;;;;;5050014;28;20047;-66
2022/03/14 04:09:00;;;;;;;6.65;4.40;;;8.60;86.50;;;;;;5056312;28;20044;-65
2022/03/14 04:11:26;;;;;;;7.97;4.30;;;8.60;86.60;;;;;;5053145;28;20049;-65
2022/03/14 04:13:54;;;;;;;6.13;4.22;;;8.60;86.70;;;;;;5032898;28;20373;-65
2022/03/14 04:16:21;;;;;;;5.72;3.88;;;8.50;87.00;;;;;;5032988;28;20037;-65
2022/03/14 04:18:47;;;;;;;5.53;3.95;;;8.50;87.00;;;;;;5053150;28;20059;-66
2022/03/14 04:21:16;;;;;;;7.55;4.57;;;8.50;87.00;;;;;;5051559;28;20424;-65
2022/03/14 04:23:42;;;;;;;6.32;4.00;;;8.60;87.70;;;;;;5047883;28;20060;-65
2022/03/14 04:26:09;;;;;;;6.47;4.30;;;8.60;87.00;;;;;;5060838;28;20041;-66
2022/03/14 04:28:36;;;;;;;7.45;4.45;;;8.60;87.30;;;;;;5043255;28;20092;-65
2022/03/14 04:31:06;;;;;;;6.80;3.97;;;8.60;87.40;;;;;;5061091;28;20118;-66
2022/03/14 04:33:32;;;;;;;6.72;3.88;;;8.60;90.00;;;;;;5052939;28;20120;-66
2022/03/14 04:35:58;;;;;;;5.57;3.92;;;8.60;87.40;;;;;;5051075;28;20040;-66
2022/03/14 04:38:25;;;;;;;6.18;3.85;;;8.60;87.40;;;;;;5049341;28;20033;-67
2022/03/14 04:40:50;;;;;;;5.25;3.38;;;8.60;87.50;;;;;;5057142;28;20041;-65
2022/03/14 04:43:16;;;;;;;5.55;3.55;;;8.60;87.60;;;;;;5050516;28;20656;-66
2022/03/14 04:45:41;;;;;;;6.65;4.45;;;8.60;87.60;;;;;;5062842;28;20097;-65
2022/03/14 04:48:07;;;;;;;5.85;4.00;;;8.60;87.70;;;;;;5060211;28;20051;-66
2022/03/14 04:50:36;;;;;;;6.05;4.38;;;8.60;88.00;;;;;;5062341;28;20032;-66
2022/03/14 04:53:03;;;;;;;5.07;3.83;;;8.50;88.00;;;;;;5044712;28;20060;-66
2022/03/14 04:55:28;;;;;;;5.90;3.92;;;8.60;89.40;;;;;;5042435;28;20074;-66
2022/03/14 04:57:54;;;;;;;5.72;3.95;;;8.50;89.60;;;;;;5068660;28;20029;-66
2022/03/14 05:00:20;;;;;;;7.15;4.05;;;8.40;90.30;;;;;;5052397;28;20586;-66
2022/03/14 05:02:45;;;;;;;5.53;3.95;;;8.40;90.80;;;;;;5064571;28;20453;-66
2022/03/14 05:05:12;;;;;;;6.53;4.13;;;8.30;91.30;;;;;;5052258;28;20606;-66
2022/03/14 05:07:38;;;;;;;7.70;3.88;;;8.30;91.60;;;;;;5051468;28;20029;-66
2022/03/14 05:10:06;;;;;;;5.65;4.40;;;8.20;92.10;;;;;;5054079;28;20111;-66
2022/03/14 05:12:32;;;;;;;7.28;4.50;;;8.10;92.60;;;;;;5036208;28;20037;-66
2022/03/14 05:14:58;;;;;;;6.03;4.40;;;8.00;93.40;;;;;;5036140;28;20150;-66
2022/03/14 05:17:25;;;;;;;6.00;4.10;;;8.00;93.80;;;;;;5056247;28;20048;-66
2022/03/14 05:19:50;;;;;;;6.95;4.28;;;7.90;94.30;;;;;;5057782;28;20044;-66
2022/03/14 05:22:16;;;;;;;8.02;4.35;;;7.90;94.50;;;;;;5046326;28;20543;-65
2022/03/14 05:24:42;;;;;;;7.07;4.65;;;7.90;94.90;;;;;;5046675;28;20037;-66
2022/03/14 05:27:08;;;;;;;6.97;4.15;;;7.80;95.30;;;;;;5031817;28;20045;-66
2022/03/14 05:29:34;;;;;;;6.10;4.07;;;7.90;95.70;;;;;;5054066;28;20037;-65
2022/03/14 05:31:59;;;;;;;6.10;3.88;;;7.90;95.90;;;;;;5053840;28;20036;-67
2022/03/14 05:34:25;;;;;;;5.45;3.92;;;7.90;96.10;;;;;;5051188;28;20056;-66
2022/03/14 05:36:51;;;;;;;5.60;4.10;;;7.90;96.80;;;;;;5042765;28;20059;-66
2022/03/14 05:39:16;;;;;;;5.90;4.10;;;7.90;97.60;;;;;;5046595;28;20095;-66
2022/03/14 05:41:42;;;;;;;6.20;4.30;;;7.90;98.10;;;;;;5061408;28;20469;-66
2022/03/14 05:44:08;;;;;;;6.38;3.80;;;8.00;98.20;;;;;;5057544;28;20041;-66
2022/03/14 05:46:34;;;;;;;6.10;4.03;;;8.00;99.10;;;;;;5046785;28;20052;-66
2022/03/14 05:49:00;;;;;;;6.07;3.88;;;8.10;98.90;;;;;;5057616;28;20044;-65
2022/03/14 05:51:25;;;;;;;7.35;4.57;;;8.10;99.00;;;;;;5058027;28;20501;-64
2022/03/14 05:53:51;;;;;;;5.97;4.07;;;8.10;99.90;;;;;;5042356;28;20032;-65
2022/03/14 05:56:16;;;;;;;6.07;4.07;;;8.10;99.90;;;;;;5037551;28;20039;-65
2022/03/14 05:58:42;;;;;;;7.90;4.20;;;8.10;99.90;;;;;;5056235;28;20033;-65
2022/03/14 06:01:07;;;;;;;7.60;4.40;;;8.20;99.90;;;;;;5056085;28;20048;-64
2022/03/14 06:03:33;;;;;;;6.60;4.22;;;8.20;99.90;;;;;;5046744;28;20040;-65
2022/03/14 06:05:58;;;;;;;5.15;3.88;;;8.20;99.90;;;;;;5048373;28;20036;-65
2022/03/14 06:08:24;;;;;;;7.60;4.35;;;8.20;99.90;;;;;;5046824;28;20041;-65
2022/03/14 06:10:49;;;;;;;7.97;4.38;;;8.20;99.90;;;;;;5040784;28;20064;-65
2022/03/14 06:13:16;;;;;;;5.80;4.40;;;8.10;99.90;;;;;;5056924;28;20127;-65
2022/03/14 06:15:42;;;;;;;7.28;4.72;;;8.10;99.90;;;;;;5045366;28;20041;-65
2022/03/14 06:18:08;;;;;;;6.55;4.53;;;8.10;99.90;;;;;;5045655;28;20087;-65
2022/03/14 06:20:34;;;;;;;6.82;4.13;;;8.10;99.90;;;;;;5046359;28;20083;-65
2022/03/14 06:22:59;;;;;;;7.90;4.80;;;8.10;99.90;;;;;;5060554;28;20123;-65
2022/03/14 06:25:25;;;;;;;8.50;5.07;;;8.10;99.90;;;;;;5038087;28;21127;-64
2022/03/14 06:27:51;;;;;;;6.45;4.90;;;8.10;99.90;;;;;;5048008;28;20140;-64
2022/03/14 06:30:16;;;;;;;6.90;4.93;;;8.10;99.90;;;;;;5064632;28;20094;-65
2022/03/14 06:32:43;;;;;;;8.15;5.00;;;8.10;99.90;;;;;;5048105;28;20052;-65
2022/03/14 06:35:10;;;;;;;7.80;5.18;;;8.10;99.90;;;;;;5038208;28;20057;-64
2022/03/14 06:37:36;;;;;;;10.65;5.20;;;8.00;99.90;;;;;;5047494;28;20128;-64
2022/03/14 06:40:03;;;;;;;9.30;5.00;;;8.00;99.90;;;;;;5060480;28;20143;-64
2022/03/14 06:42:29;;;;;;;8.20;5.38;;;8.10;99.90;;;;;;5052240;28;20052;-64
2022/03/14 06:45:00;;;;;;;9.13;5.30;;;8.00;99.90;;;;;;5055875;28;20469;-64
2022/03/14 06:47:25;;;;;;;;;;;8.10;99.90;;;;;;5061726;28;20732;-64
2022/03/14 06:49:51;;;;;;;7.25;5.32;;;8.10;99.90;;;;;;5065535;28;19916;-65
2022/03/14 06:52:17;;;;;;;6.90;4.78;;;8.00;99.90;;;;;;5054820;28;20048;-64
2022/03/14 06:54:43;;;;;;;10.50;5.38;;;8.00;99.90;;;;;;5059630;28;20087;-64
2022/03/14 06:57:10;;;;;;;8.43;5.97;;;8.10;99.90;;;;;;5030096;28;20515;-64
2022/03/14 06:59:36;;;;;;;9.77;5.63;;;8.10;99.90;;;;;;5067235;28;20037;-65
2022/03/14 07:02:03;;;;;;;9.32;6.22;;;8.10;99.90;;;;;;5055214;28;20049;-64
2022/03/14 07:04:29;;;;;;;13.32;6.68;;;8.10;99.90;;;;;;5066788;28;20044;-65
2022/03/14 07:06:55;;;;;;;10.65;6.22;;;8.10;99.90;;;;;;5063659;28;20797;-64
2022/03/14 07:09:21;;;;;;;10.77;5.85;;;8.10;99.90;;;;;;5047639;28;20041;-64
2022/03/14 07:11:51;;;;;;;9.48;6.00;;;8.20;99.90;;;;;;5052369;28;20045;-65
2022/03/14 07:14:21;;;;;;;12.70;7.07;;;8.10;99.90;;;;;;5054601;28;20041;-64
2022/03/14 07:16:47;;;;;;;10.25;7.00;;;8.10;99.90;;;;;;5052209;28;20573;-63
2022/03/14 07:19:13;;;;;;;11.73;6.57;;;8.20;99.90;;;;;;5055420;28;20076;-63
2022/03/14 07:21:39;;;;;;;11.23;6.40;;;8.20;99.90;;;;;;5051618;28;20065;-64
2022/03/14 07:24:05;;;;;;;13.07;7.18;;;8.20;99.90;;;;;;5056852;28;20541;-64
2022/03/14 07:26:31;;;;;;;10.65;7.00;;;8.20;99.90;;;;;;5052265;28;20056;-65
2022/03/14 07:28:56;;;;;;;13.13;7.32;;;8.20;99.90;;;;;;5051767;28;20478;-64
2022/03/14 07:31:22;;;;;;;11.80;7.55;;;8.20;99.90;;;;;;5053853;28;20091;-66
2022/03/14 07:33:48;;;;;;;13.82;7.10;;;8.20;99.90;;;;;;5046063;28;20056;-63
2022/03/14 07:36:14;;;;;;;11.68;7.18;;;8.20;99.90;;;;;;5045842;28;20025;-65
2022/03/14 07:38:40;;;;;;;13.52;7.43;;;8.20;99.90;;;;;;5046653;28;20127;-64
2022/03/14 07:41:07;;;;;;;11.98;7.78;;;8.20;99.90;;;;;;5050575;28;20136;-65
2022/03/14 07:43:33;;;;;;;12.90;7.95;;;8.20;99.90;;;;;;5050314;28;20047;-65
2022/03/14 07:45:58;;;;;;;15.52;8.50;;;8.20;99.90;;;;;;5053126;28;20554;-65
2022/03/14 07:48:24;;;;;;;12.93;7.65;;;8.20;99.90;;;;;;5048440;28;20045;-65
2022/03/14 07:50:52;;;;;;;15.20;8.57;;;8.20;99.90;;;;;;5049738;28;20054;-65
2022/03/14 07:53:17;;;;;;;14.23;8.45;;;8.20;99.90;;;;;;5046655;28;20567;-65
2022/03/14 07:55:43;;;;;;;15.40;8.65;;;8.30;99.90;;;;;;5049490;28;20044;-65
2022/03/14 07:58:09;;;;;;;14.32;8.20;;;8.30;99.90;;;;;;5055785;28;20464;-65
2022/03/14 08:00:34;;;;;;;16.38;8.57;;;8.30;99.90;;;;;;5057170;28;20033;-65
2022/03/14 08:03:00;;;;;;;14.48;8.18;;;8.30;99.90;;;;;;5051888;28;20554;-65
2022/03/14 08:05:26;;;;;;;15.15;8.73;;;8.30;99.90;;;;;;5047941;28;20041;-64
2022/03/14 08:07:53;;;;;;;15.23;8.55;;;8.30;99.90;;;;;;5054716;28;20064;-64
2022/03/14 08:10:19;;;;;;;16.77;9.63;;;8.40;99.90;;;;;;5056284;28;20045;-64
2022/03/14 08:12:53;;;;;;;15.30;9.10;;;8.30;99.90;;;;;;5058352;28;20027;-63
2022/03/14 08:15:24;;;;;;;17.17;9.80;;;8.30;99.90;;;;;;5033504;28;20075;-64
2022/03/14 08:17:52;;;;;;;16.27;9.15;;;8.40;99.90;;;;;;5048504;28;20119;-65
2022/03/14 08:20:18;;;;;;;16.52;9.48;;;8.40;99.90;;;;;;5042083;28;20056;-65
2022/03/14 08:22:43;;;;;;;15.98;9.50;;;8.40;99.90;;;;;;5055901;28;20539;-65
2022/03/14 08:25:10;;;;;;;16.25;10.15;;;8.50;99.90;;;;;;5047646;28;20089;-63
2022/03/14 08:27:35;;;;;;;18.60;10.45;;;8.50;99.90;;;;;;5052616;28;20464;-65
2022/03/14 08:30:01;;;;;;;16.38;9.77;;;8.50;99.90;;;;;;5063232;28;20065;-65
2022/03/14 08:32:26;;;;;;;18.35;10.55;;;8.50;99.90;;;;;;5051126;28;20179;-65
2022/03/14 08:34:53;;;;;;;20.75;10.65;;;8.60;99.90;;;;;;5047844;28;20037;-66
2022/03/14 08:37:20;;;;;;;17.85;9.98;;;8.60;99.90;;;;;;5054757;28;20237;-64
2022/03/14 08:39:48;;;;;;;17.30;10.50;;;8.60;99.90;;;;;;5049834;28;20056;-63
2022/03/14 08:42:14;;;;;;;15.77;9.85;;;8.60;99.90;;;;;;5048810;28;20052;-63
2022/03/14 08:44:40;;;;;;;17.85;9.88;;;8.60;99.90;;;;;;5054383;28;20041;-64
2022/03/14 08:47:06;;;;;;;17.08;10.85;;;8.60;99.90;;;;;;5047763;28;20111;-65
2022/03/14 08:49:32;;;;;;;16.30;10.27;;;8.70;99.90;;;;;;5056098;28;20148;-65
2022/03/14 08:51:57;;;;;;;16.25;9.75;;;8.70;99.90;;;;;;5053223;28;20056;-64
2022/03/14 08:54:23;;;;;;;19.92;11.02;;;8.60;99.90;;;;;;5062771;28;20037;-64
2022/03/14 08:56:48;;;;;;;19.90;10.55;;;8.70;99.90;;;;;;5068303;28;20040;-64
2022/03/14 08:59:14;;;;;;;21.15;10.93;;;8.70;99.90;;;;;;5055796;28;20033;-65
2022/03/14 09:01:41;;;;;;;17.50;11.05;;;8.70;99.90;;;;;;5052616;28;20421;-64
2022/03/14 09:04:07;;;;;;;16.55;10.32;;;8.70;99.90;;;;;;5056429;28;20161;-64
2022/03/14 09:06:35;;;;;;;17.98;11.45;;;8.60;99.90;;;;;;5052289;28;20386;-64
2022/03/14 09:09:02;;;;;;;19.45;10.23;;;8.60;99.90;;;;;;5052442;28;20052;-64
2022/03/14 09:11:28;;;;;;;17.75;10.20;;;8.60;99.90;;;;;;5051857;28;20505;-64
2022/03/14 09:13:53;;;;;;;19.65;11.18;;;8.60;99.90;;;;;;5060836;28;20041;-65
2022/03/14 09:16:19;;;;;;;22.23;11.02;;;8.60;99.90;;;;;;5069531;28;20032;-64
2022/03/14 09:18:45;;;;;;;18.00;10.77;;;8.70;99.90;;;;;;5050439;28;20049;-65
2022/03/14 09:21:12;;;;;;;20.52;11.75;;;8.80;99.90;;;;;;5055593;28;20041;-64
2022/03/14 09:23:40;;;;;;;22.60;12.02;;;8.80;99.90;;;;;;5064301;28;20115;-64
2022/03/14 09:26:05;;;;;;;20.40;12.25;;;8.80;99.90;;;;;;5051193;28;20088;-63
2022/03/14 09:28:31;;;;;;;21.70;11.95;;;8.80;99.90;;;;;;5061485;28;20068;-64
2022/03/14 09:30:58;;;;;;;23.23;12.52;;;8.80;99.90;;;;;;5055736;28;20041;-64
2022/03/14 09:33:24;;;;;;;23.15;12.35;;;8.80;99.90;;;;;;5048037;28;20041;-64
2022/03/14 09:35:51;;;;;;;22.02;12.05;;;8.90;99.90;;;;;;5051655;28;20036;-64
2022/03/14 09:38:17;;;;;;;22.40;12.18;;;8.80;99.90;;;;;;5052834;28;20047;-66
2022/03/14 09:40:45;;;;;;;20.27;11.70;;;8.90;99.90;;;;;;5052312;28;20049;-63
2022/03/14 09:43:13;;;;;;;24.05;12.65;;;8.90;99.90;;;;;;5055180;28;20033;-63
2022/03/14 09:45:39;;;;;;;20.33;12.55;;;8.90;99.90;;;;;;5055477;28;20122;-63
2022/03/14 09:48:08;;;;;;;23.45;12.45;;;8.90;99.90;;;;;;5053344;28;20075;-63
2022/03/14 09:50:39;;;;;;;23.33;12.75;;;8.80;99.90;;;;;;5054317;28;20080;-65
2022/03/14 09:53:09;;;;;;;25.23;12.95;;;8.90;99.90;;;;;;5040864;28;20033;-64
2022/03/14 09:55:41;;;;;;;24.75;13.20;;;8.90;99.90;;;;;;5052841;28;20497;-64
2022/03/14 09:58:12;;;;;;;21.98;11.48;;;8.90;99.90;;;;;;5056767;28;20051;-64
2022/03/14 10:00:38;;;;;;;24.23;12.50;;;8.80;99.90;;;;;;5056713;28;20422;-63
2022/03/14 10:03:04;;;;;;;25.98;13.45;;;8.90;99.90;;;;;;5058250;28;20125;-64
2022/03/14 10:05:30;;;;;;;30.13;14.35;;;8.80;99.90;;;;;;5055544;28;20043;-64
2022/03/14 10:07:56;;;;;;;28.38;14.43;;;8.90;99.90;;;;;;5057502;28;20045;-64
2022/03/14 10:10:22;;;;;;;30.65;14.63;;;8.80;99.90;;;;;;5060193;28;20029;-64
2022/03/14 10:12:52;;;;;;;32.10;15.55;;;8.80;99.90;;;;;;5047617;28;20156;-64
2022/03/14 10:15:19;;;;;;;33.55;15.10;;;8.80;99.90;;;;;;5058117;28;20146;-63
2022/03/14 10:17:44;;;;;;;31.40;15.63;;;8.70;99.90;;;;;;5062517;28;20063;-65
2022/03/14 10:20:10;;;;;;;33.00;15.52;;;8.70;99.90;;;;;;5052062;28;20049;-63
2022/03/14 10:22:39;;;;;;;31.00;15.15;;;8.70;99.90;;;;;;5062567;28;20033;-63
2022/03/14 10:25:10;;;;;;;34.13;14.82;;;8.70;99.90;;;;;;5059371;28;20123;-64
2022/03/14 10:27:45;;;;;;;30.45;14.60;;;8.60;99.90;;;;;;5067670;28;20135;-63
2022/03/14 10:30:29;;;;;;;31.85;14.52;;;8.60;99.90;;;;;;5049999;28;20076;-64
2022/03/14 10:33:11;;;;;;;25.42;12.63;;;8.70;99.90;;;;;;5051820;28;20052;-63
2022/03/14 10:35:41;;;;;;;25.00;12.13;;;8.70;99.90;;;;;;5047837;28;20145;-64
2022/03/14 10:38:08;;;;;;;;;;;8.70;99.90;;;;;;5045654;28;20037;-64
2022/03/14 10:40:43;;;;;;;20.17;9.73;;;8.70;99.90;;;;;;5058071;28;19916;-65
2022/03/14 10:43:26;;;;;;;21.58;9.55;;;8.70;99.90;;;;;;5061680;28;20045;-64
2022/03/14 10:45:57;;;;;;;23.38;8.75;;;8.80;99.90;;;;;;5050578;28;20040;-64
2022/03/14 10:48:39;;;;;;;;;;;8.70;99.90;;;;;;5047761;28;20396;-63
2022/03/14 10:51:07;;;;;;;23.38;9.30;;;8.80;99.90;;;;;;5050747;28;19943;-64
2022/03/14 10:53:37;;;;;;;22.15;9.90;;;8.70;99.90;;;;;;5051541;28;20140;-64
2022/03/14 10:56:03;;;;;;;25.38;10.70;;;8.80;99.90;;;;;;5071334;28;20106;-65
2022/03/14 10:58:30;;;;;;;25.98;10.43;;;8.90;99.90;;;;;;5071667;28;20043;-63
2022/03/14 11:00:58;;;;;;;32.70;11.02;;;9.00;99.90;;;;;;5056024;28;20037;-64
2022/03/14 11:03:45;;;;;;;33.25;12.73;;;9.10;99.90;;;;;;5036152;28;22052;-64
2022/03/14 11:06:16;;;;;;;32.25;12.93;;;9.20;99.90;;;;;;5036598;28;20078;-63
2022/03/14 11:08:45;;;;;;;29.95;12.48;;;9.20;99.90;;;;;;5032681;28;20053;-65
2022/03/14 11:11:20;;;;;;;29.25;12.77;;;9.30;99.90;;;;;;5060165;28;20123;-63
2022/03/14 11:13:52;;;;;;;29.83;13.88;;;9.30;99.90;;;;;;5061619;28;20120;-63
2022/03/14 11:16:22;;;;;;;28.52;12.73;;;9.40;99.90;;;;;;5058080;28;20129;-64
2022/03/14 11:18:50;;;;;;;30.63;12.32;;;9.50;99.90;;;;;;5070532;28;20044;-63
2022/03/14 11:21:19;;;;;;;32.15;13.48;;;9.50;99.90;;;;;;5052278;28;20045;-64
2022/03/14 11:23:46;;;;;;;31.42;12.75;;;9.50;99.90;;;;;;5061839;28;20100;-64
2022/03/14 11:26:13;;;;;;;29.95;12.98;;;9.50;99.90;;;;;;5050164;28;20080;-65
2022/03/14 11:28:41;;;;;;;33.63;14.15;;;9.50;99.90;;;;;;5050523;28;20064;-64
2022/03/14 11:31:07;;;;;;;32.85;12.80;;;9.50;99.90;;;;;;5053238;28;20053;-64
2022/03/14 11:33:37;;;;;;;27.13;12.65;;;9.50;99.90;;;;;;5064514;28;20112;-64
2022/03/14 11:36:05;;;;;;;30.20;12.73;;;9.50;99.90;;;;;;5052038;28;20051;-63
2022/03/14 11:38:31;;;;;;;29.33;12.32;;;9.40;99.90;;;;;;5059785;28;20461;-65
2022/03/14 11:40:57;;;;;;;25.92;12.02;;;9.40;99.90;;;;;;5061703;28;20102;-64
2022/03/14 11:43:23;;;;;;;28.42;11.43;;;9.40;99.90;;;;;;5058964;28;20033;-63
2022/03/14 11:45:50;;;;;;;25.27;11.60;;;9.40;99.90;;;;;;5060932;28;20049;-63
2022/03/14 11:48:17;;;;;;;27.83;10.85;;;9.30;99.90;;;;;;5066452;28;20056;-63
2022/03/14 11:50:44;;;;;;;25.17;11.20;;;9.40;99.90;;;;;;5051098;28;20489;-64
2022/03/14 11:53:24;;;;;;;23.33;10.20;;;9.40;99.90;;;;;;5061457;28;20044;-65
2022/03/14 11:55:55;;;;;;;26.88;11.23;;;9.40;99.90;;;;;;5060993;28;20118;-65
2022/03/14 11:58:34;;;;;;;27.17;10.73;;;9.30;99.90;;;;;;5066933;28;20036;-66
2022/03/14 12:01:19;;;;;;;26.08;10.30;;;9.30;99.90;;;;;;5056328;28;20076;-64
2022/03/14 12:03:55;;;;;;;24.10;10.57;;;9.30;99.90;;;;;;5061876;28;20128;-65
2022/03/14 12:06:46;;;;;;;24.02;10.50;;;9.20;99.90;;;;;;5055509;28;20048;-64
2022/03/14 12:09:45;;;;;;;22.77;9.80;;;9.20;99.90;;;;;;5044225;28;20412;-65
2022/03/14 12:12:30;;;;;;;22.95;10.65;;;9.20;99.90;;;;;;5056186;28;20041;-65
2022/03/14 12:14:58;;;;;;;21.63;10.38;;;9.20;99.90;;;;;;5063252;28;20068;-65
2022/03/14 12:17:24;;;;;;;27.17;11.98;;;9.20;99.90;;;;;;5051311;28;20481;-65
2022/03/14 12:20:03;;;;;;;30.50;13.40;;;9.10;99.90;;;;;;5054360;28;20452;-64
2022/03/14 12:22:39;;;;;;;24.77;13.48;;;9.10;99.90;;;;;;5063047;28;20048;-64
2022/03/14 12:25:06;;;;;;;32.50;14.98;;;9.00;99.90;;;;;;5064469;28;20045;-65
2022/03/14 12:27:37;;;;;;;32.63;14.77;;;9.00;99.90;;;;;;5051319;28;20569;-65
2022/03/14 12:30:23;;;;;;;27.73;14.75;;;9.00;99.90;;;;;;5055640;28;20045;-64
2022/03/14 12:32:53;;;;;;;28.55;15.15;;;9.00;99.90;;;;;;5056872;28;20078;-64
2022/03/14 12:35:22;;;;;;;;;;;9.00;99.90;;;;;;5059250;28;20077;-65
2022/03/14 12:37:52;;;;;;;34.28;15.75;;;9.10;99.90;;;;;;5049895;28;19920;-65
2022/03/14 12:40:23;;;;;;;31.48;15.38;;;9.10;99.90;;;;;;5035117;28;20094;-65
2022/03/14 12:43:12;;;;;;;31.58;15.32;;;9.20;99.90;;;;;;5049910;28;20048;-65
2022/03/14 12:45:44;;;;;;;31.38;15.57;;;9.20;99.90;;;;;;5070962;28;20464;-65
2022/03/14 12:48:17;;;;;;;27.98;15.07;;;9.20;99.90;;;;;;5063003;28;20454;-65